Terminal Aerodrome Forecast
Issued by NWS

Current Version | Previous Version | Text Only | Print | Product List | Glossary Off
Versions: 1 2 3 4 5 6 7 8 9 10 11 12 13 14 15 16 17 18 19 20 21 22 23

000
FTUS41 KPBZ 302300
TAFHLG
TAF
KHLG 302330Z 0100/0124 28006KT P6SM SCT025 BKN050
     FM010400 VRB03KT 5SM BR BKN035
     FM010600 VRB03KT 3SM BR BKN020
     FM010900 VRB03KT 1SM BR BKN008
     FM011300 14005KT 5SM BR BKN020
     FM011500 12005KT P6SM BKN035=

USA.gov is the U.S. government's official web portal to all federal, state and local government web resources and services.